sensor_id;sensor_type;location;lat;lon;timestamp;P1;durP1;ratioP1;P2;durP2;ratioP2
11646;SDS011;5880;52.342;9.662;2022-11-15T00:00:53;7.90;;;6.43;;
11646;SDS011;5880;52.342;9.662;2022-11-15T00:03:21;7.60;;;6.20;;
11646;SDS011;5880;52.342;9.662;2022-11-15T00:05:51;9.23;;;6.10;;
11646;SDS011;5880;52.342;9.662;2022-11-15T00:08:17;7.20;;;6.37;;
11646;SDS011;5880;52.342;9.662;2022-11-15T00:10:43;8.33;;;6.30;;
11646;SDS011;5880;52.342;9.662;2022-11-15T00:13:19;8.70;;;5.77;;
11646;SDS011;5880;52.342;9.662;2022-11-15T00:15:44;7.23;;;5.60;;
11646;SDS011;5880;52.342;9.662;2022-11-15T00:18:12;6.10;;;5.50;;
11646;SDS011;5880;52.342;9.662;2022-11-15T00:20:39;7.17;;;5.60;;
11646;SDS011;5880;52.342;9.662;2022-11-15T00:23:05;7.90;;;5.80;;
11646;SDS011;5880;52.342;9.662;2022-11-15T00:25:31;7.50;;;5.80;;
11646;SDS011;5880;52.342;9.662;2022-11-15T00:27:57;7.33;;;5.40;;
11646;SDS011;5880;52.342;9.662;2022-11-15T00:30:24;7.13;;;6.03;;
11646;SDS011;5880;52.342;9.662;2022-11-15T00:32:50;6.70;;;6.00;;
11646;SDS011;5880;52.342;9.662;2022-11-15T00:35:17;7.83;;;5.77;;
11646;SDS011;5880;52.342;9.662;2022-11-15T00:37:43;7.87;;;6.00;;
11646;SDS011;5880;52.342;9.662;2022-11-15T00:40:09;7.10;;;5.77;;
11646;SDS011;5880;52.342;9.662;2022-11-15T00:42:37;7.00;;;5.73;;
11646;SDS011;5880;52.342;9.662;2022-11-15T00:45:04;6.00;;;5.20;;
11646;SDS011;5880;52.342;9.662;2022-11-15T00:47:30;6.80;;;5.53;;
11646;SDS011;5880;52.342;9.662;2022-11-15T00:49:56;7.40;;;5.40;;
11646;SDS011;5880;52.342;9.662;2022-11-15T00:52:21;6.30;;;5.27;;
11646;SDS011;5880;52.342;9.662;2022-11-15T00:54:47;6.93;;;5.97;;
11646;SDS011;5880;52.342;9.662;2022-11-15T00:57:13;6.43;;;5.77;;
11646;SDS011;5880;52.342;9.662;2022-11-15T00:59:39;6.53;;;5.57;;
11646;SDS011;5880;52.342;9.662;2022-11-15T01:02:04;6.90;;;5.50;;
11646;SDS011;5880;52.342;9.662;2022-11-15T01:04:30;7.00;;;5.33;;
11646;SDS011;5880;52.342;9.662;2022-11-15T01:06:55;5.70;;;5.10;;
11646;SDS011;5880;52.342;9.662;2022-11-15T01:09:21;7.77;;;5.40;;
11646;SDS011;5880;52.342;9.662;2022-11-15T01:11:47;7.07;;;5.60;;
11646;SDS011;5880;52.342;9.662;2022-11-15T01:14:13;6.23;;;5.60;;
11646;SDS011;5880;52.342;9.662;2022-11-15T01:16:38;7.17;;;5.57;;
11646;SDS011;5880;52.342;9.662;2022-11-15T01:19:04;6.50;;;5.50;;
11646;SDS011;5880;52.342;9.662;2022-11-15T01:21:30;6.47;;;5.83;;
11646;SDS011;5880;52.342;9.662;2022-11-15T01:23:56;6.33;;;5.13;;
11646;SDS011;5880;52.342;9.662;2022-11-15T01:26:22;6.37;;;5.63;;
11646;SDS011;5880;52.342;9.662;2022-11-15T01:28:49;7.03;;;5.90;;
11646;SDS011;5880;52.342;9.662;2022-11-15T01:31:18;6.03;;;5.13;;
11646;SDS011;5880;52.342;9.662;2022-11-15T01:33:47;5.87;;;5.13;;
11646;SDS011;5880;52.342;9.662;2022-11-15T01:36:14;6.90;;;5.57;;
11646;SDS011;5880;52.342;9.662;2022-11-15T01:38:55;5.77;;;5.07;;
11646;SDS011;5880;52.342;9.662;2022-11-15T01:41:24;5.57;;;4.70;;
11646;SDS011;5880;52.342;9.662;2022-11-15T01:43:57;7.13;;;5.37;;
11646;SDS011;5880;52.342;9.662;2022-11-15T01:47:02;6.80;;;5.10;;
11646;SDS011;5880;52.342;9.662;2022-11-15T01:49:39;6.10;;;4.70;;
11646;SDS011;5880;52.342;9.662;2022-11-15T01:52:26;6.37;;;5.07;;
11646;SDS011;5880;52.342;9.662;2022-11-15T01:55:05;6.63;;;4.70;;
11646;SDS011;5880;52.342;9.662;2022-11-15T01:57:57;5.73;;;4.70;;
11646;SDS011;5880;52.342;9.662;2022-11-15T02:00:28;5.07;;;4.53;;
11646;SDS011;5880;52.342;9.662;2022-11-15T02:02:55;5.63;;;4.87;;
11646;SDS011;5880;52.342;9.662;2022-11-15T02:05:21;5.93;;;5.20;;
11646;SDS011;5880;52.342;9.662;2022-11-15T02:07:47;6.63;;;5.43;;
11646;SDS011;5880;52.342;9.662;2022-11-15T02:10:18;6.67;;;5.10;;
11646;SDS011;5880;52.342;9.662;2022-11-15T02:12:48;6.53;;;4.80;;
11646;SDS011;5880;52.342;9.662;2022-11-15T02:15:15;5.40;;;4.90;;
11646;SDS011;5880;52.342;9.662;2022-11-15T02:20:51;8.40;;;5.37;;
11646;SDS011;5880;52.342;9.662;2022-11-15T02:24:06;6.33;;;5.47;;
11646;SDS011;5880;52.342;9.662;2022-11-15T02:27:17;5.03;;;4.53;;
11646;SDS011;5880;52.342;9.662;2022-11-15T02:30:23;5.00;;;4.23;;
11646;SDS011;5880;52.342;9.662;2022-11-15T02:33:03;5.50;;;4.67;;
11646;SDS011;5880;52.342;9.662;2022-11-15T02:36:00;5.30;;;4.80;;
11646;SDS011;5880;52.342;9.662;2022-11-15T02:44:23;5.23;;;4.73;;
11646;SDS011;5880;52.342;9.662;2022-11-15T02:47:09;7.33;;;4.40;;
11646;SDS011;5880;52.342;9.662;2022-11-15T02:49:41;6.50;;;5.10;;
11646;SDS011;5880;52.342;9.662;2022-11-15T02:52:16;6.30;;;4.70;;
11646;SDS011;5880;52.342;9.662;2022-11-15T02:54:57;5.53;;;5.00;;
11646;SDS011;5880;52.342;9.662;2022-11-15T02:57:36;6.10;;;4.50;;
11646;SDS011;5880;52.342;9.662;2022-11-15T03:00:24;4.57;;;4.03;;
11646;SDS011;5880;52.342;9.662;2022-11-15T03:08:44;6.03;;;4.43;;
11646;SDS011;5880;52.342;9.662;2022-11-15T03:11:37;5.30;;;4.77;;
11646;SDS011;5880;52.342;9.662;2022-11-15T03:20:06;5.23;;;4.57;;
11646;SDS011;5880;52.342;9.662;2022-11-15T03:22:39;5.17;;;4.67;;
11646;SDS011;5880;52.342;9.662;2022-11-15T03:25:10;8.07;;;5.07;;
11646;SDS011;5880;52.342;9.662;2022-11-15T03:27:43;6.07;;;5.00;;
11646;SDS011;5880;52.342;9.662;2022-11-15T03:30:15;5.50;;;4.90;;
11646;SDS011;5880;52.342;9.662;2022-11-15T03:32:44;5.30;;;4.67;;
11646;SDS011;5880;52.342;9.662;2022-11-15T03:35:20;5.10;;;4.60;;
11646;SDS011;5880;52.342;9.662;2022-11-15T03:38:09;6.57;;;5.20;;
11646;SDS011;5880;52.342;9.662;2022-11-15T03:40:49;5.27;;;4.20;;
11646;SDS011;5880;52.342;9.662;2022-11-15T03:43:50;6.53;;;4.47;;
11646;SDS011;5880;52.342;9.662;2022-11-15T03:49:48;5.83;;;4.40;;
11646;SDS011;5880;52.342;9.662;2022-11-15T03:52:23;5.47;;;4.67;;
11646;SDS011;5880;52.342;9.662;2022-11-15T03:54:53;4.73;;;4.23;;
11646;SDS011;5880;52.342;9.662;2022-11-15T03:57:21;4.80;;;4.30;;
11646;SDS011;5880;52.342;9.662;2022-11-15T03:59:47;5.23;;;4.47;;
11646;SDS011;5880;52.342;9.662;2022-11-15T04:02:13;4.20;;;3.80;;
11646;SDS011;5880;52.342;9.662;2022-11-15T04:04:40;4.80;;;4.30;;
11646;SDS011;5880;52.342;9.662;2022-11-15T04:07:06;5.10;;;4.13;;
11646;SDS011;5880;52.342;9.662;2022-11-15T04:09:31;4.53;;;4.00;;
11646;SDS011;5880;52.342;9.662;2022-11-15T04:11:57;4.40;;;3.90;;
11646;SDS011;5880;52.342;9.662;2022-11-15T04:14:23;4.20;;;3.80;;
11646;SDS011;5880;52.342;9.662;2022-11-15T04:16:48;6.77;;;4.30;;
11646;SDS011;5880;52.342;9.662;2022-11-15T04:19:14;4.60;;;4.00;;
11646;SDS011;5880;52.342;9.662;2022-11-15T04:22:18;4.07;;;3.40;;
11646;SDS011;5880;52.342;9.662;2022-11-15T04:25:10;3.50;;;3.20;;
11646;SDS011;5880;52.342;9.662;2022-11-15T04:27:36;4.10;;;3.70;;
11646;SDS011;5880;52.342;9.662;2022-11-15T04:30:01;4.93;;;3.50;;
11646;SDS011;5880;52.342;9.662;2022-11-15T04:32:27;3.93;;;3.63;;
11646;SDS011;5880;52.342;9.662;2022-11-15T04:34:53;4.37;;;3.43;;
11646;SDS011;5880;52.342;9.662;2022-11-15T04:37:19;4.00;;;3.53;;
11646;SDS011;5880;52.342;9.662;2022-11-15T04:39:44;6.10;;;5.30;;
11646;SDS011;5880;52.342;9.662;2022-11-15T04:42:10;4.60;;;4.20;;
11646;SDS011;5880;52.342;9.662;2022-11-15T04:44:36;4.57;;;4.13;;
11646;SDS011;5880;52.342;9.662;2022-11-15T04:47:02;4.37;;;3.73;;
11646;SDS011;5880;52.342;9.662;2022-11-15T04:49:28;4.33;;;3.70;;
11646;SDS011;5880;52.342;9.662;2022-11-15T04:51:53;5.37;;;4.13;;
11646;SDS011;5880;52.342;9.662;2022-11-15T04:54:19;5.33;;;3.83;;
11646;SDS011;5880;52.342;9.662;2022-11-15T04:56:45;4.63;;;3.80;;
11646;SDS011;5880;52.342;9.662;2022-11-15T04:59:10;3.97;;;3.60;;
11646;SDS011;5880;52.342;9.662;2022-11-15T05:01:36;5.70;;;3.80;;
11646;SDS011;5880;52.342;9.662;2022-11-15T05:04:03;5.13;;;4.40;;
11646;SDS011;5880;52.342;9.662;2022-11-15T05:06:44;6.30;;;5.37;;
11646;SDS011;5880;52.342;9.662;2022-11-15T05:09:16;5.43;;;4.47;;
11646;SDS011;5880;52.342;9.662;2022-11-15T05:11:43;5.30;;;4.47;;
11646;SDS011;5880;52.342;9.662;2022-11-15T05:14:10;7.40;;;4.70;;
11646;SDS011;5880;52.342;9.662;2022-11-15T05:16:35;5.73;;;5.13;;
11646;SDS011;5880;52.342;9.662;2022-11-15T05:19:02;5.83;;;4.47;;
11646;SDS011;5880;52.342;9.662;2022-11-15T05:21:28;6.13;;;3.90;;
11646;SDS011;5880;52.342;9.662;2022-11-15T05:23:54;5.43;;;4.93;;
11646;SDS011;5880;52.342;9.662;2022-11-15T05:26:19;6.63;;;6.00;;
11646;SDS011;5880;52.342;9.662;2022-11-15T05:28:45;7.27;;;5.70;;
11646;SDS011;5880;52.342;9.662;2022-11-15T05:31:12;5.53;;;5.03;;
11646;SDS011;5880;52.342;9.662;2022-11-15T05:33:40;6.20;;;5.60;;
11646;SDS011;5880;52.342;9.662;2022-11-15T05:36:13;12.20;;;10.43;;
11646;SDS011;5880;52.342;9.662;2022-11-15T05:38:59;15.37;;;12.67;;
11646;SDS011;5880;52.342;9.662;2022-11-15T05:41:27;11.77;;;9.33;;
11646;SDS011;5880;52.342;9.662;2022-11-15T05:44:10;8.73;;;7.70;;
11646;SDS011;5880;52.342;9.662;2022-11-15T05:46:40;7.57;;;6.77;;
11646;SDS011;5880;52.342;9.662;2022-11-15T05:49:07;6.80;;;5.60;;
11646;SDS011;5880;52.342;9.662;2022-11-15T05:51:40;5.03;;;4.47;;
11646;SDS011;5880;52.342;9.662;2022-11-15T05:54:09;4.53;;;4.13;;
11646;SDS011;5880;52.342;9.662;2022-11-15T05:56:36;4.97;;;4.33;;
11646;SDS011;5880;52.342;9.662;2022-11-15T05:59:02;4.30;;;3.90;;
11646;SDS011;5880;52.342;9.662;2022-11-15T06:01:29;5.13;;;3.77;;
11646;SDS011;5880;52.342;9.662;2022-11-15T06:03:55;4.20;;;3.80;;
11646;SDS011;5880;52.342;9.662;2022-11-15T06:06:21;3.87;;;3.50;;
11646;SDS011;5880;52.342;9.662;2022-11-15T06:08:46;3.43;;;3.10;;
11646;SDS011;5880;52.342;9.662;2022-11-15T06:11:13;3.63;;;3.27;;
11646;SDS011;5880;52.342;9.662;2022-11-15T06:13:39;3.83;;;3.50;;
11646;SDS011;5880;52.342;9.662;2022-11-15T06:16:05;4.73;;;3.87;;
11646;SDS011;5880;52.342;9.662;2022-11-15T06:18:32;4.00;;;3.60;;
11646;SDS011;5880;52.342;9.662;2022-11-15T06:20:59;3.93;;;3.53;;
11646;SDS011;5880;52.342;9.662;2022-11-15T06:23:25;4.03;;;3.50;;
11646;SDS011;5880;52.342;9.662;2022-11-15T06:25:51;4.80;;;3.80;;
11646;SDS011;5880;52.342;9.662;2022-11-15T06:28:17;4.37;;;3.67;;
11646;SDS011;5880;52.342;9.662;2022-11-15T06:30:42;4.10;;;3.60;;
11646;SDS011;5880;52.342;9.662;2022-11-15T06:33:08;4.67;;;3.87;;
11646;SDS011;5880;52.342;9.662;2022-11-15T06:35:34;5.13;;;3.47;;
11646;SDS011;5880;52.342;9.662;2022-11-15T06:38:02;5.13;;;4.07;;
11646;SDS011;5880;52.342;9.662;2022-11-15T06:40:34;4.10;;;3.50;;
11646;SDS011;5880;52.342;9.662;2022-11-15T06:43:02;4.07;;;3.30;;
11646;SDS011;5880;52.342;9.662;2022-11-15T06:45:29;4.37;;;3.97;;
11646;SDS011;5880;52.342;9.662;2022-11-15T06:47:55;4.17;;;3.77;;
11646;SDS011;5880;52.342;9.662;2022-11-15T06:50:22;4.70;;;3.50;;
11646;SDS011;5880;52.342;9.662;2022-11-15T06:52:48;3.73;;;3.40;;
11646;SDS011;5880;52.342;9.662;2022-11-15T06:55:14;4.30;;;3.70;;
11646;SDS011;5880;52.342;9.662;2022-11-15T06:57:50;4.00;;;3.60;;
11646;SDS011;5880;52.342;9.662;2022-11-15T07:00:18;3.90;;;3.53;;
11646;SDS011;5880;52.342;9.662;2022-11-15T07:02:46;4.97;;;3.90;;
11646;SDS011;5880;52.342;9.662;2022-11-15T07:05:13;4.43;;;3.80;;
11646;SDS011;5880;52.342;9.662;2022-11-15T07:07:39;4.63;;;3.70;;
11646;SDS011;5880;52.342;9.662;2022-11-15T07:10:06;4.87;;;3.50;;
11646;SDS011;5880;52.342;9.662;2022-11-15T07:12:33;5.10;;;3.70;;
11646;SDS011;5880;52.342;9.662;2022-11-15T07:14:59;4.43;;;3.87;;
11646;SDS011;5880;52.342;9.662;2022-11-15T07:17:25;4.57;;;3.90;;
11646;SDS011;5880;52.342;9.662;2022-11-15T07:19:51;6.30;;;3.80;;
11646;SDS011;5880;52.342;9.662;2022-11-15T07:22:16;5.63;;;4.20;;
11646;SDS011;5880;52.342;9.662;2022-11-15T07:24:42;4.73;;;3.60;;
11646;SDS011;5880;52.342;9.662;2022-11-15T07:27:08;3.60;;;3.30;;
11646;SDS011;5880;52.342;9.662;2022-11-15T07:29:34;6.37;;;4.10;;
11646;SDS011;5880;52.342;9.662;2022-11-15T07:31:59;4.90;;;3.63;;
11646;SDS011;5880;52.342;9.662;2022-11-15T07:34:25;4.00;;;3.60;;
11646;SDS011;5880;52.342;9.662;2022-11-15T07:36:51;4.33;;;3.93;;
11646;SDS011;5880;52.342;9.662;2022-11-15T07:39:16;4.63;;;3.40;;
11646;SDS011;5880;52.342;9.662;2022-11-15T07:41:42;4.47;;;3.77;;
11646;SDS011;5880;52.342;9.662;2022-11-15T07:44:08;4.67;;;3.43;;
11646;SDS011;5880;52.342;9.662;2022-11-15T07:46:34;3.73;;;3.30;;
11646;SDS011;5880;52.342;9.662;2022-11-15T07:49:00;4.20;;;3.63;;
11646;SDS011;5880;52.342;9.662;2022-11-15T07:51:25;4.30;;;3.60;;
11646;SDS011;5880;52.342;9.662;2022-11-15T07:53:51;4.93;;;3.53;;
11646;SDS011;5880;52.342;9.662;2022-11-15T07:56:16;4.40;;;3.77;;
11646;SDS011;5880;52.342;9.662;2022-11-15T07:58:42;4.47;;;3.63;;
11646;SDS011;5880;52.342;9.662;2022-11-15T08:01:11;5.33;;;3.50;;
11646;SDS011;5880;52.342;9.662;2022-11-15T08:03:38;4.73;;;3.83;;
11646;SDS011;5880;52.342;9.662;2022-11-15T08:06:04;4.00;;;3.60;;
11646;SDS011;5880;52.342;9.662;2022-11-15T08:08:30;4.83;;;3.70;;
11646;SDS011;5880;52.342;9.662;2022-11-15T08:10:57;4.70;;;3.70;;
11646;SDS011;5880;52.342;9.662;2022-11-15T08:13:23;4.30;;;3.90;;
11646;SDS011;5880;52.342;9.662;2022-11-15T08:15:49;4.90;;;4.00;;
11646;SDS011;5880;52.342;9.662;2022-11-15T08:18:15;4.63;;;3.90;;
11646;SDS011;5880;52.342;9.662;2022-11-15T08:20:42;4.70;;;4.10;;
11646;SDS011;5880;52.342;9.662;2022-11-15T08:23:09;4.50;;;4.00;;
11646;SDS011;5880;52.342;9.662;2022-11-15T08:25:37;4.80;;;3.70;;
11646;SDS011;5880;52.342;9.662;2022-11-15T08:28:04;4.63;;;3.73;;
11646;SDS011;5880;52.342;9.662;2022-11-15T08:30:35;3.83;;;3.43;;
11646;SDS011;5880;52.342;9.662;2022-11-15T08:33:09;4.37;;;3.97;;
11646;SDS011;5880;52.342;9.662;2022-11-15T08:35:38;3.77;;;3.47;;
11646;SDS011;5880;52.342;9.662;2022-11-15T08:38:05;4.67;;;3.70;;
11646;SDS011;5880;52.342;9.662;2022-11-15T08:40:31;3.73;;;3.27;;
11646;SDS011;5880;52.342;9.662;2022-11-15T08:42:57;4.67;;;3.40;;
11646;SDS011;5880;52.342;9.662;2022-11-15T08:45:23;4.53;;;3.30;;
11646;SDS011;5880;52.342;9.662;2022-11-15T08:47:49;5.23;;;3.47;;
11646;SDS011;5880;52.342;9.662;2022-11-15T08:50:15;4.00;;;3.30;;
11646;SDS011;5880;52.342;9.662;2022-11-15T08:52:41;3.87;;;3.30;;
11646;SDS011;5880;52.342;9.662;2022-11-15T08:55:06;3.90;;;3.03;;
11646;SDS011;5880;52.342;9.662;2022-11-15T08:57:33;3.90;;;3.13;;
11646;SDS011;5880;52.342;9.662;2022-11-15T08:59:58;4.80;;;3.63;;
11646;SDS011;5880;52.342;9.662;2022-11-15T09:02:24;4.70;;;3.30;;
11646;SDS011;5880;52.342;9.662;2022-11-15T09:04:50;5.13;;;3.13;;
11646;SDS011;5880;52.342;9.662;2022-11-15T09:07:15;3.20;;;2.90;;
11646;SDS011;5880;52.342;9.662;2022-11-15T09:09:41;3.80;;;3.20;;
11646;SDS011;5880;52.342;9.662;2022-11-15T09:12:07;3.80;;;3.33;;
11646;SDS011;5880;52.342;9.662;2022-11-15T09:14:33;3.43;;;2.90;;
11646;SDS011;5880;52.342;9.662;2022-11-15T09:16:59;4.07;;;3.33;;
11646;SDS011;5880;52.342;9.662;2022-11-15T09:19:26;3.57;;;2.90;;
11646;SDS011;5880;52.342;9.662;2022-11-15T09:21:51;3.20;;;2.83;;
11646;SDS011;5880;52.342;9.662;2022-11-15T09:24:17;4.00;;;3.10;;
11646;SDS011;5880;52.342;9.662;2022-11-15T09:26:43;3.13;;;2.83;;
11646;SDS011;5880;52.342;9.662;2022-11-15T09:29:09;3.43;;;2.67;;
11646;SDS011;5880;52.342;9.662;2022-11-15T09:31:35;3.70;;;2.90;;
11646;SDS011;5880;52.342;9.662;2022-11-15T09:34:01;3.10;;;2.80;;
11646;SDS011;5880;52.342;9.662;2022-11-15T09:36:26;4.20;;;2.83;;
11646;SDS011;5880;52.342;9.662;2022-11-15T09:38:52;3.00;;;2.70;;
11646;SDS011;5880;52.342;9.662;2022-11-15T09:41:24;4.50;;;3.30;;
11646;SDS011;5880;52.342;9.662;2022-11-15T09:44:38;3.57;;;3.03;;
11646;SDS011;5880;52.342;9.662;2022-11-15T09:50:12;3.10;;;2.80;;
11646;SDS011;5880;52.342;9.662;2022-11-15T09:52:44;3.00;;;2.70;;
11646;SDS011;5880;52.342;9.662;2022-11-15T09:55:11;4.60;;;3.47;;
11646;SDS011;5880;52.342;9.662;2022-11-15T09:58:03;3.37;;;2.90;;
11646;SDS011;5880;52.342;9.662;2022-11-15T10:01:07;3.33;;;3.03;;
11646;SDS011;5880;52.342;9.662;2022-11-15T10:03:44;4.10;;;3.17;;
11646;SDS011;5880;52.342;9.662;2022-11-15T10:06:15;3.10;;;2.60;;
11646;SDS011;5880;52.342;9.662;2022-11-15T10:11:41;3.13;;;2.73;;
11646;SDS011;5880;52.342;9.662;2022-11-15T10:14:12;2.80;;;2.43;;
11646;SDS011;5880;52.342;9.662;2022-11-15T10:20:00;4.30;;;2.77;;
11646;SDS011;5880;52.342;9.662;2022-11-15T10:22:46;3.60;;;3.13;;
11646;SDS011;5880;52.342;9.662;2022-11-15T10:25:25;3.77;;;3.17;;
11646;SDS011;5880;52.342;9.662;2022-11-15T10:33:11;3.23;;;2.83;;
11646;SDS011;5880;52.342;9.662;2022-11-15T10:41:16;3.13;;;2.70;;
11646;SDS011;5880;52.342;9.662;2022-11-15T10:44:31;2.60;;;2.40;;
11646;SDS011;5880;52.342;9.662;2022-11-15T10:46:32;2.60;;;2.40;;
11646;SDS011;5880;52.342;9.662;2022-11-15T10:49:14;2.90;;;2.50;;
11646;SDS011;5880;52.342;9.662;2022-11-15T10:51:42;3.03;;;2.30;;
11646;SDS011;5880;52.342;9.662;2022-11-15T10:54:23;2.50;;;2.27;;
11646;SDS011;5880;52.342;9.662;2022-11-15T10:59:39;2.27;;;2.07;;
11646;SDS011;5880;52.342;9.662;2022-11-15T11:02:23;2.33;;;2.00;;
11646;SDS011;5880;52.342;9.662;2022-11-15T11:04:56;2.57;;;2.37;;
11646;SDS011;5880;52.342;9.662;2022-11-15T11:07:43;3.00;;;2.20;;
11646;SDS011;5880;52.342;9.662;2022-11-15T11:10:21;3.63;;;2.90;;
11646;SDS011;5880;52.342;9.662;2022-11-15T11:12:47;3.23;;;2.60;;
11646;SDS011;5880;52.342;9.662;2022-11-15T11:15:13;3.23;;;2.33;;
11646;SDS011;5880;52.342;9.662;2022-11-15T11:21:08;2.80;;;2.60;;
11646;SDS011;5880;52.342;9.662;2022-11-15T11:23:47;2.50;;;2.30;;
11646;SDS011;5880;52.342;9.662;2022-11-15T11:27:13;2.20;;;2.00;;
11646;SDS011;5880;52.342;9.662;2022-11-15T11:29:58;3.03;;;2.40;;
11646;SDS011;5880;52.342;9.662;2022-11-15T11:39:10;2.20;;;2.00;;
11646;SDS011;5880;52.342;9.662;2022-11-15T11:42:12;2.10;;;2.00;;
11646;SDS011;5880;52.342;9.662;2022-11-15T11:50:53;2.95;;;2.30;;
11646;SDS011;5880;52.342;9.662;2022-11-15T11:53:45;2.38;;;2.00;;
11646;SDS011;5880;52.342;9.662;2022-11-15T11:56:25;2.28;;;2.08;;
11646;SDS011;5880;52.342;9.662;2022-11-15T12:02:11;2.35;;;2.15;;
11646;SDS011;5880;52.342;9.662;2022-11-15T12:05:05;2.33;;;2.13;;
11646;SDS011;5880;52.342;9.662;2022-11-15T12:07:40;2.30;;;2.10;;
11646;SDS011;5880;52.342;9.662;2022-11-15T12:13:06;2.95;;;2.20;;
11646;SDS011;5880;52.342;9.662;2022-11-15T12:15:42;2.25;;;2.05;;
11646;SDS011;5880;52.342;9.662;2022-11-15T12:18:19;2.50;;;1.88;;
11646;SDS011;5880;52.342;9.662;2022-11-15T12:20:55;2.95;;;2.10;;
11646;SDS011;5880;52.342;9.662;2022-11-15T12:23:32;2.40;;;2.20;;
11646;SDS011;5880;52.342;9.662;2022-11-15T12:26:10;2.47;;;2.20;;
11646;SDS011;5880;52.342;9.662;2022-11-15T12:28:54;3.08;;;2.20;;
11646;SDS011;5880;52.342;9.662;2022-11-15T12:34:00;3.23;;;2.13;;
11646;SDS011;5880;52.342;9.662;2022-11-15T12:36:47;2.40;;;2.20;;
11646;SDS011;5880;52.342;9.662;2022-11-15T12:39:16;2.55;;;2.22;;
11646;SDS011;5880;52.342;9.662;2022-11-15T13:02:25;2.80;;;2.50;;
11646;SDS011;5880;52.342;9.662;2022-11-15T13:07:54;3.20;;;2.85;;
11646;SDS011;5880;52.342;9.662;2022-11-15T13:13:07;3.78;;;2.70;;
11646;SDS011;5880;52.342;9.662;2022-11-15T13:15:35;3.85;;;2.78;;
11646;SDS011;5880;52.342;9.662;2022-11-15T13:18:31;2.97;;;2.50;;
11646;SDS011;5880;52.342;9.662;2022-11-15T13:21:17;2.63;;;2.20;;
11646;SDS011;5880;52.342;9.662;2022-11-15T13:24:15;3.10;;;2.60;;
11646;SDS011;5880;52.342;9.662;2022-11-15T13:26:42;3.33;;;2.60;;
11646;SDS011;5880;52.342;9.662;2022-11-15T13:29:17;2.90;;;2.70;;
11646;SDS011;5880;52.342;9.662;2022-11-15T13:31:45;2.92;;;2.70;;
11646;SDS011;5880;52.342;9.662;2022-11-15T13:36:58;2.83;;;2.60;;
11646;SDS011;5880;52.342;9.662;2022-11-15T13:39:31;3.58;;;2.75;;
11646;SDS011;5880;52.342;9.662;2022-11-15T13:42:01;4.05;;;2.45;;
11646;SDS011;5880;52.342;9.662;2022-11-15T13:44:29;3.20;;;2.55;;
11646;SDS011;5880;52.342;9.662;2022-11-15T13:47:04;2.60;;;2.40;;
11646;SDS011;5880;52.342;9.662;2022-11-15T13:49:37;3.33;;;2.65;;
11646;SDS011;5880;52.342;9.662;2022-11-15T13:52:04;5.32;;;2.63;;
11646;SDS011;5880;52.342;9.662;2022-11-15T14:03:06;2.85;;;2.20;;
11646;SDS011;5880;52.342;9.662;2022-11-15T14:06:08;3.05;;;2.50;;
11646;SDS011;5880;52.342;9.662;2022-11-15T14:08:37;2.72;;;2.50;;
11646;SDS011;5880;52.342;9.662;2022-11-15T14:11:21;4.30;;;2.45;;
11646;SDS011;5880;52.342;9.662;2022-11-15T14:19:04;2.75;;;2.47;;
11646;SDS011;5880;52.342;9.662;2022-11-15T14:21:34;2.93;;;2.73;;
11646;SDS011;5880;52.342;9.662;2022-11-15T14:24:17;3.00;;;2.53;;
11646;SDS011;5880;52.342;9.662;2022-11-15T14:26:46;4.67;;;2.87;;
11646;SDS011;5880;52.342;9.662;2022-11-15T14:29:26;2.50;;;2.30;;
11646;SDS011;5880;52.342;9.662;2022-11-15T14:32:05;3.15;;;2.25;;
11646;SDS011;5880;52.342;9.662;2022-11-15T14:37:25;2.50;;;2.30;;
11646;SDS011;5880;52.342;9.662;2022-11-15T14:39:54;2.80;;;2.43;;
11646;SDS011;5880;52.342;9.662;2022-11-15T14:42:21;2.90;;;1.90;;
11646;SDS011;5880;52.342;9.662;2022-11-15T14:44:48;4.13;;;2.67;;
11646;SDS011;5880;52.342;9.662;2022-11-15T14:47:15;2.63;;;2.33;;
11646;SDS011;5880;52.342;9.662;2022-11-15T14:49:41;4.10;;;2.57;;
11646;SDS011;5880;52.342;9.662;2022-11-15T14:52:29;2.87;;;2.17;;
11646;SDS011;5880;52.342;9.662;2022-11-15T14:55:00;2.60;;;2.10;;
11646;SDS011;5880;52.342;9.662;2022-11-15T14:57:35;3.90;;;2.67;;
11646;SDS011;5880;52.342;9.662;2022-11-15T15:00:01;2.57;;;2.37;;
11646;SDS011;5880;52.342;9.662;2022-11-15T15:02:28;2.30;;;2.10;;
11646;SDS011;5880;52.342;9.662;2022-11-15T15:04:54;2.90;;;2.50;;
11646;SDS011;5880;52.342;9.662;2022-11-15T15:07:19;3.07;;;2.50;;
11646;SDS011;5880;52.342;9.662;2022-11-15T15:09:46;4.20;;;2.63;;
11646;SDS011;5880;52.342;9.662;2022-11-15T15:12:13;2.63;;;2.20;;
11646;SDS011;5880;52.342;9.662;2022-11-15T15:14:46;3.60;;;2.50;;
11646;SDS011;5880;52.342;9.662;2022-11-15T15:17:14;2.37;;;2.13;;
11646;SDS011;5880;52.342;9.662;2022-11-15T15:19:40;2.77;;;2.47;;
11646;SDS011;5880;52.342;9.662;2022-11-15T15:22:13;3.80;;;2.63;;
11646;SDS011;5880;52.342;9.662;2022-11-15T15:24:42;3.20;;;2.30;;
11646;SDS011;5880;52.342;9.662;2022-11-15T15:27:09;4.40;;;2.33;;
11646;SDS011;5880;52.342;9.662;2022-11-15T15:29:36;2.67;;;2.47;;
11646;SDS011;5880;52.342;9.662;2022-11-15T15:32:02;2.57;;;2.37;;
11646;SDS011;5880;52.342;9.662;2022-11-15T15:34:28;2.33;;;2.13;;
11646;SDS011;5880;52.342;9.662;2022-11-15T15:37:17;2.87;;;2.57;;
11646;SDS011;5880;52.342;9.662;2022-11-15T15:39:51;2.83;;;2.37;;
11646;SDS011;5880;52.342;9.662;2022-11-15T15:42:19;3.47;;;2.10;;
11646;SDS011;5880;52.342;9.662;2022-11-15T15:44:46;3.50;;;2.70;;
11646;SDS011;5880;52.342;9.662;2022-11-15T15:47:13;3.00;;;2.40;;
11646;SDS011;5880;52.342;9.662;2022-11-15T15:49:46;4.30;;;2.70;;
11646;SDS011;5880;52.342;9.662;2022-11-15T15:52:13;2.53;;;2.30;;
11646;SDS011;5880;52.342;9.662;2022-11-15T15:54:39;2.23;;;2.03;;
11646;SDS011;5880;52.342;9.662;2022-11-15T15:57:06;5.03;;;2.60;;
11646;SDS011;5880;52.342;9.662;2022-11-15T15:59:36;2.53;;;2.13;;
11646;SDS011;5880;52.342;9.662;2022-11-15T16:02:02;2.77;;;2.10;;
11646;SDS011;5880;52.342;9.662;2022-11-15T16:04:28;2.87;;;2.30;;
11646;SDS011;5880;52.342;9.662;2022-11-15T16:07:00;4.00;;;2.47;;
11646;SDS011;5880;52.342;9.662;2022-11-15T16:09:27;3.10;;;2.60;;
11646;SDS011;5880;52.342;9.662;2022-11-15T16:12:11;2.80;;;2.20;;
11646;SDS011;5880;52.342;9.662;2022-11-15T16:14:37;3.37;;;2.77;;
11646;SDS011;5880;52.342;9.662;2022-11-15T16:17:03;2.97;;;2.53;;
11646;SDS011;5880;52.342;9.662;2022-11-15T16:19:29;3.30;;;2.70;;
11646;SDS011;5880;52.342;9.662;2022-11-15T16:21:54;3.60;;;2.67;;
11646;SDS011;5880;52.342;9.662;2022-11-15T16:24:20;3.20;;;2.47;;
11646;SDS011;5880;52.342;9.662;2022-11-15T16:26:48;2.80;;;2.60;;
11646;SDS011;5880;52.342;9.662;2022-11-15T16:29:16;3.33;;;2.67;;
11646;SDS011;5880;52.342;9.662;2022-11-15T16:31:41;3.57;;;2.60;;
11646;SDS011;5880;52.342;9.662;2022-11-15T16:34:07;2.43;;;2.23;;
11646;SDS011;5880;52.342;9.662;2022-11-15T16:36:33;3.00;;;2.67;;
11646;SDS011;5880;52.342;9.662;2022-11-15T16:39:01;2.80;;;2.50;;
11646;SDS011;5880;52.342;9.662;2022-11-15T16:41:30;3.47;;;2.60;;
11646;SDS011;5880;52.342;9.662;2022-11-15T16:43:56;2.90;;;2.60;;
11646;SDS011;5880;52.342;9.662;2022-11-15T16:46:23;3.90;;;2.60;;
11646;SDS011;5880;52.342;9.662;2022-11-15T16:48:51;4.20;;;2.70;;
11646;SDS011;5880;52.342;9.662;2022-11-15T16:51:18;3.90;;;3.13;;
11646;SDS011;5880;52.342;9.662;2022-11-15T16:53:44;4.27;;;2.83;;
11646;SDS011;5880;52.342;9.662;2022-11-15T16:56:23;3.93;;;2.80;;
11646;SDS011;5880;52.342;9.662;2022-11-15T16:58:51;4.13;;;2.80;;
11646;SDS011;5880;52.342;9.662;2022-11-15T17:01:31;3.80;;;3.27;;
11646;SDS011;5880;52.342;9.662;2022-11-15T17:04:00;3.13;;;2.70;;
11646;SDS011;5880;52.342;9.662;2022-11-15T17:06:37;5.20;;;3.57;;
11646;SDS011;5880;52.342;9.662;2022-11-15T17:09:15;4.53;;;3.43;;
11646;SDS011;5880;52.342;9.662;2022-11-15T17:11:44;9.17;;;5.10;;
11646;SDS011;5880;52.342;9.662;2022-11-15T17:14:10;7.80;;;4.80;;
11646;SDS011;5880;52.342;9.662;2022-11-15T17:16:37;9.63;;;5.20;;
11646;SDS011;5880;52.342;9.662;2022-11-15T17:19:10;11.60;;;6.13;;
11646;SDS011;5880;52.342;9.662;2022-11-15T17:21:38;13.97;;;6.93;;